sensor_id;sensor_type;location;lat;lon;timestamp;noise_LAeq;noise_LA_min;noise_LA_max;noise_LA01;noise_LA95
1754;Laerm;58380;48.312;9.246;2023-05-29T07:55:20;44.65;38.17;57.43;;
1754;Laerm;58380;48.312;9.246;2023-05-29T07:57:46;45.35;35.97;54.32;;
1754;Laerm;58380;48.312;9.246;2023-05-29T08:00:12;49.44;38.59;63.59;;
1754;Laerm;58380;48.312;9.246;2023-05-29T08:02:40;49.59;36.79;74.78;;
1754;Laerm;58380;48.312;9.246;2023-05-29T08:05:05;45.51;38.26;57.24;;
1754;Laerm;58380;48.312;9.246;2023-05-29T08:07:32;44.74;36.85;66.07;;
1754;Laerm;58380;48.312;9.246;2023-05-29T08:09:58;43.18;34.93;51.92;;
1754;Laerm;58380;48.312;9.246;2023-05-29T08:12:23;45.83;37.42;55.10;;
1754;Laerm;58380;48.312;9.246;2023-05-29T08:14:49;46.46;38.81;59.36;;
1754;Laerm;58380;48.312;9.246;2023-05-29T08:17:14;44.58;38.19;54.19;;
1754;Laerm;58380;48.312;9.246;2023-05-29T08:19:40;46.66;37.48;56.71;;
1754;Laerm;58380;48.312;9.246;2023-05-29T08:22:05;45.37;35.99;56.74;;
1754;Laerm;58380;48.312;9.246;2023-05-29T08:24:31;46.05;38.41;59.59;;
1754;Laerm;58380;48.312;9.246;2023-05-29T08:26:56;45.02;38.05;54.24;;
1754;Laerm;58380;48.312;9.246;2023-05-29T08:29:21;44.32;36.40;54.27;;
1754;Laerm;58380;48.312;9.246;2023-05-29T08:31:47;44.69;37.94;60.62;;
1754;Laerm;58380;48.312;9.246;2023-05-29T08:34:12;45.57;39.82;57.26;;
1754;Laerm;58380;48.312;9.246;2023-05-29T08:36:38;47.30;41.41;56.29;;
1754;Laerm;58380;48.312;9.246;2023-05-29T08:39:06;50.95;38.55;74.49;;
1754;Laerm;58380;48.312;9.246;2023-05-29T08:42:02;47.39;39.55;60.33;;
1754;Laerm;58380;48.312;9.246;2023-05-29T08:44:31;46.71;39.40;57.39;;
1754;Laerm;58380;48.312;9.246;2023-05-29T08:47:02;46.12;39.60;57.87;;
1754;Laerm;58380;48.312;9.246;2023-05-29T08:49:40;46.38;39.55;61.64;;
1754;Laerm;58380;48.312;9.246;2023-05-29T08:52:11;47.58;38.48;66.33;;
1754;Laerm;58380;48.312;9.246;2023-05-29T08:54:37;53.55;41.36;75.07;;
1754;Laerm;58380;48.312;9.246;2023-05-29T08:57:03;52.08;37.40;70.01;;
1754;Laerm;58380;48.312;9.246;2023-05-29T08:59:30;49.25;41.96;66.52;;
1754;Laerm;58380;48.312;9.246;2023-05-29T09:01:56;49.16;41.30;58.47;;
1754;Laerm;58380;48.312;9.246;2023-05-29T09:04:22;51.20;41.92;67.25;;
1754;Laerm;58380;48.312;9.246;2023-05-29T09:06:48;54.23;38.68;75.85;;
1754;Laerm;58380;48.312;9.246;2023-05-29T09:09:14;54.12;42.07;74.86;;
1754;Laerm;58380;48.312;9.246;2023-05-29T09:11:39;48.75;41.30;60.97;;
1754;Laerm;58380;48.312;9.246;2023-05-29T09:14:05;48.47;38.11;62.08;;
1754;Laerm;58380;48.312;9.246;2023-05-29T09:16:30;47.27;38.73;60.13;;
1754;Laerm;58380;48.312;9.246;2023-05-29T09:20:53;49.49;41.66;68.70;;
1754;Laerm;58380;48.312;9.246;2023-05-29T09:23:18;47.07;40.15;62.90;;
1754;Laerm;58380;48.312;9.246;2023-05-29T09:25:44;44.81;38.37;55.14;;
1754;Laerm;58380;48.312;9.246;2023-05-29T09:28:10;48.34;42.88;56.96;;
1754;Laerm;58380;48.312;9.246;2023-05-29T09:30:46;51.90;40.18;77.04;;
1754;Laerm;58380;48.312;9.246;2023-05-29T09:33:14;49.08;41.60;70.24;;
1754;Laerm;58380;48.312;9.246;2023-05-29T09:35:42;47.48;37.58;62.60;;
1754;Laerm;58380;48.312;9.246;2023-05-29T09:38:10;45.49;35.12;54.71;;
1754;Laerm;58380;48.312;9.246;2023-05-29T09:40:38;48.43;41.47;58.18;;
1754;Laerm;58380;48.312;9.246;2023-05-29T09:43:09;48.02;40.48;63.53;;
1754;Laerm;58380;48.312;9.246;2023-05-29T09:45:41;52.97;39.01;71.68;;
1754;Laerm;58380;48.312;9.246;2023-05-29T09:48:12;46.12;38.77;56.62;;
1754;Laerm;58380;48.312;9.246;2023-05-29T09:50:39;48.28;38.58;62.57;;
1754;Laerm;58380;48.312;9.246;2023-05-29T09:53:23;47.98;40.58;61.08;;
1754;Laerm;58380;48.312;9.246;2023-05-29T09:55:54;52.21;39.92;63.77;;
1754;Laerm;58380;48.312;9.246;2023-05-29T09:58:21;46.59;37.89;53.62;;
1754;Laerm;58380;48.312;9.246;2023-05-29T10:00:48;47.77;36.94;61.56;;
1754;Laerm;58380;48.312;9.246;2023-05-29T10:03:15;50.03;38.40;64.17;;
1754;Laerm;58380;48.312;9.246;2023-05-29T10:05:43;46.66;37.73;62.06;;
1754;Laerm;58380;48.312;9.246;2023-05-29T10:08:14;48.04;41.52;70.15;;
1754;Laerm;58380;48.312;9.246;2023-05-29T10:10:45;48.91;38.23;67.20;;
1754;Laerm;58380;48.312;9.246;2023-05-29T10:13:14;47.40;38.14;68.90;;
1754;Laerm;58380;48.312;9.246;2023-05-29T10:15:50;47.89;39.96;60.87;;
1754;Laerm;58380;48.312;9.246;2023-05-29T10:18:38;44.44;37.48;53.66;;
1754;Laerm;58380;48.312;9.246;2023-05-29T10:21:07;46.92;38.05;62.63;;
1754;Laerm;58380;48.312;9.246;2023-05-29T10:23:35;46.66;41.94;64.88;;
1754;Laerm;58380;48.312;9.246;2023-05-29T10:26:20;50.29;40.44;63.49;;
1754;Laerm;58380;48.312;9.246;2023-05-29T10:28:57;47.96;40.24;64.92;;
1754;Laerm;58380;48.312;9.246;2023-05-29T10:31:46;48.52;38.65;60.55;;
1754;Laerm;58380;48.312;9.246;2023-05-29T10:34:42;45.29;37.33;57.14;;
1754;Laerm;58380;48.312;9.246;2023-05-29T10:37:47;47.72;39.39;61.72;;
1754;Laerm;58380;48.312;9.246;2023-05-29T10:40:15;48.04;37.71;67.14;;
1754;Laerm;58380;48.312;9.246;2023-05-29T10:42:46;51.80;39.94;70.33;;
1754;Laerm;58380;48.312;9.246;2023-05-29T10:47:53;45.55;38.81;61.11;;
1754;Laerm;58380;48.312;9.246;2023-05-29T10:53:07;46.17;39.77;67.46;;
1754;Laerm;58380;48.312;9.246;2023-05-29T10:55:40;44.06;35.70;55.13;;
1754;Laerm;58380;48.312;9.246;2023-05-29T10:58:07;54.73;40.26;80.36;;
1754;Laerm;58380;48.312;9.246;2023-05-29T11:00:33;56.44;41.59;75.53;;
1754;Laerm;58380;48.312;9.246;2023-05-29T11:03:06;47.19;40.66;56.43;;
1754;Laerm;58380;48.312;9.246;2023-05-29T11:05:32;44.17;38.45;55.63;;
1754;Laerm;58380;48.312;9.246;2023-05-29T11:07:59;44.74;38.91;55.62;;
1754;Laerm;58380;48.312;9.246;2023-05-29T11:13:34;47.61;38.40;64.86;;
1754;Laerm;58380;48.312;9.246;2023-05-29T11:18:54;44.60;36.46;58.81;;
1754;Laerm;58380;48.312;9.246;2023-05-29T11:23:52;44.29;38.70;51.90;;
1754;Laerm;58380;48.312;9.246;2023-05-29T11:26:22;50.92;40.60;66.72;;
1754;Laerm;58380;48.312;9.246;2023-05-29T11:28:48;53.19;39.34;75.08;;
1754;Laerm;58380;48.312;9.246;2023-05-29T11:31:15;49.84;39.21;57.84;;
1754;Laerm;58380;48.312;9.246;2023-05-29T11:33:48;44.95;38.98;58.80;;
1754;Laerm;58380;48.312;9.246;2023-05-29T11:36:18;50.72;39.90;74.00;;
1754;Laerm;58380;48.312;9.246;2023-05-29T11:38:47;53.07;40.67;71.61;;
1754;Laerm;58380;48.312;9.246;2023-05-29T11:41:13;49.55;41.46;66.90;;
1754;Laerm;58380;48.312;9.246;2023-05-29T11:43:38;48.80;39.72;66.54;;
1754;Laerm;58380;48.312;9.246;2023-05-29T11:46:17;46.80;37.09;63.31;;
1754;Laerm;58380;48.312;9.246;2023-05-29T11:48:47;47.26;36.48;64.54;;
1754;Laerm;58380;48.312;9.246;2023-05-29T11:51:13;48.33;38.59;65.34;;
1754;Laerm;58380;48.312;9.246;2023-05-29T11:53:43;47.59;38.69;62.33;;
1754;Laerm;58380;48.312;9.246;2023-05-29T11:56:12;49.23;38.86;63.38;;
1754;Laerm;58380;48.312;9.246;2023-05-29T11:58:40;45.89;39.14;54.65;;
1754;Laerm;58380;48.312;9.246;2023-05-29T12:01:07;47.28;40.18;64.61;;
1754;Laerm;58380;48.312;9.246;2023-05-29T12:03:41;48.79;39.85;67.80;;
1754;Laerm;58380;48.312;9.246;2023-05-29T12:06:10;46.13;36.45;64.52;;
1754;Laerm;58380;48.312;9.246;2023-05-29T12:08:37;45.38;38.06;61.46;;
1754;Laerm;58380;48.312;9.246;2023-05-29T12:11:04;47.91;38.46;62.97;;
1754;Laerm;58380;48.312;9.246;2023-05-29T12:13:30;47.76;40.34;59.66;;
1754;Laerm;58380;48.312;9.246;2023-05-29T12:16:00;47.62;38.69;65.06;;
1754;Laerm;58380;48.312;9.246;2023-05-29T12:18:28;45.01;38.11;54.17;;
1754;Laerm;58380;48.312;9.246;2023-05-29T12:21:00;43.47;37.13;54.66;;
1754;Laerm;58380;48.312;9.246;2023-05-29T12:23:27;47.39;40.82;60.77;;
1754;Laerm;58380;48.312;9.246;2023-05-29T12:25:54;48.50;39.81;70.90;;
1754;Laerm;58380;48.312;9.246;2023-05-29T12:28:20;46.75;39.43;58.24;;
1754;Laerm;58380;48.312;9.246;2023-05-29T12:30:47;48.84;42.03;58.84;;
1754;Laerm;58380;48.312;9.246;2023-05-29T12:33:30;46.73;39.47;63.55;;
1754;Laerm;58380;48.312;9.246;2023-05-29T12:36:04;47.95;39.56;65.92;;
1754;Laerm;58380;48.312;9.246;2023-05-29T12:38:30;55.29;38.66;74.19;;
1754;Laerm;58380;48.312;9.246;2023-05-29T12:40:55;44.90;38.29;57.25;;
1754;Laerm;58380;48.312;9.246;2023-05-29T12:43:22;46.26;39.55;57.48;;
1754;Laerm;58380;48.312;9.246;2023-05-29T12:45:55;48.73;40.33;62.27;;
1754;Laerm;58380;48.312;9.246;2023-05-29T12:48:27;51.66;39.86;70.17;;
1754;Laerm;58380;48.312;9.246;2023-05-29T12:50:53;50.75;38.53;69.49;;
1754;Laerm;58380;48.312;9.246;2023-05-29T12:53:18;47.64;37.37;61.83;;
1754;Laerm;58380;48.312;9.246;2023-05-29T12:55:46;67.29;36.51;97.61;;
1754;Laerm;58380;48.312;9.246;2023-05-29T12:58:14;43.73;37.65;53.66;;
1754;Laerm;58380;48.312;9.246;2023-05-29T13:00:43;45.08;37.61;62.51;;
1754;Laerm;58380;48.312;9.246;2023-05-29T13:03:09;43.84;37.01;57.50;;
1754;Laerm;58380;48.312;9.246;2023-05-29T13:05:36;45.33;39.65;69.18;;
1754;Laerm;58380;48.312;9.246;2023-05-29T13:08:02;48.38;36.44;66.22;;
1754;Laerm;58380;48.312;9.246;2023-05-29T13:10:30;45.21;36.12;55.19;;
1754;Laerm;58380;48.312;9.246;2023-05-29T13:12:55;48.40;39.24;70.02;;
1754;Laerm;58380;48.312;9.246;2023-05-29T13:15:24;46.36;38.84;63.69;;
1754;Laerm;58380;48.312;9.246;2023-05-29T13:17:51;56.66;36.86;69.15;;
1754;Laerm;58380;48.312;9.246;2023-05-29T13:20:17;48.89;38.04;63.08;;
1754;Laerm;58380;48.312;9.246;2023-05-29T13:22:45;49.74;39.06;72.77;;
1754;Laerm;58380;48.312;9.246;2023-05-29T13:25:14;48.82;39.67;64.31;;
1754;Laerm;58380;48.312;9.246;2023-05-29T13:27:42;48.58;40.59;62.47;;
1754;Laerm;58380;48.312;9.246;2023-05-29T13:30:09;45.06;38.77;58.78;;
1754;Laerm;58380;48.312;9.246;2023-05-29T13:35:11;49.61;37.53;69.15;;
1754;Laerm;58380;48.312;9.246;2023-05-29T13:37:37;49.35;39.59;63.66;;
1754;Laerm;58380;48.312;9.246;2023-05-29T13:40:06;50.67;42.14;69.04;;
1754;Laerm;58380;48.312;9.246;2023-05-29T13:42:34;46.87;39.46;70.22;;
1754;Laerm;58380;48.312;9.246;2023-05-29T13:44:59;46.99;38.51;67.28;;
1754;Laerm;58380;48.312;9.246;2023-05-29T13:47:25;48.19;37.64;68.55;;
1754;Laerm;58380;48.312;9.246;2023-05-29T13:49:53;51.53;34.10;79.45;;
1754;Laerm;58380;48.312;9.246;2023-05-29T13:52:19;46.67;37.09;73.78;;
1754;Laerm;58380;48.312;9.246;2023-05-29T13:54:44;46.66;38.48;67.26;;
1754;Laerm;58380;48.312;9.246;2023-05-29T13:57:10;44.78;36.74;59.45;;
1754;Laerm;58380;48.312;9.246;2023-05-29T13:59:35;46.43;37.99;61.79;;
1754;Laerm;58380;48.312;9.246;2023-05-29T14:02:01;48.13;40.70;60.56;;
1754;Laerm;58380;48.312;9.246;2023-05-29T14:04:29;46.95;40.15;64.84;;
1754;Laerm;58380;48.312;9.246;2023-05-29T14:06:55;47.03;38.59;60.06;;
1754;Laerm;58380;48.312;9.246;2023-05-29T14:09:22;47.34;39.95;64.43;;
1754;Laerm;58380;48.312;9.246;2023-05-29T14:11:58;45.13;38.15;56.27;;
1754;Laerm;58380;48.312;9.246;2023-05-29T14:14:24;44.81;37.10;55.35;;
1754;Laerm;58380;48.312;9.246;2023-05-29T14:16:50;46.70;38.43;59.74;;
1754;Laerm;58380;48.312;9.246;2023-05-29T14:19:20;47.11;40.18;68.54;;
1754;Laerm;58380;48.312;9.246;2023-05-29T14:21:46;48.16;39.03;72.01;;
1754;Laerm;58380;48.312;9.246;2023-05-29T14:24:12;50.12;37.48;68.08;;
1754;Laerm;58380;48.312;9.246;2023-05-29T14:26:38;48.06;38.45;66.21;;
1754;Laerm;58380;48.312;9.246;2023-05-29T14:29:03;49.48;36.94;61.81;;
1754;Laerm;58380;48.312;9.246;2023-05-29T14:31:30;46.89;38.09;58.37;;
1754;Laerm;58380;48.312;9.246;2023-05-29T14:33:56;48.10;34.28;66.62;;
1754;Laerm;58380;48.312;9.246;2023-05-29T14:36:21;49.88;39.05;60.87;;
1754;Laerm;58380;48.312;9.246;2023-05-29T14:38:46;45.00;38.96;52.95;;
1754;Laerm;58380;48.312;9.246;2023-05-29T14:41:14;46.65;39.65;66.02;;
1754;Laerm;58380;48.312;9.246;2023-05-29T14:43:42;45.11;39.72;52.15;;
1754;Laerm;58380;48.312;9.246;2023-05-29T14:46:08;48.38;41.05;64.58;;
1754;Laerm;58380;48.312;9.246;2023-05-29T14:48:34;42.90;34.49;56.05;;
1754;Laerm;58380;48.312;9.246;2023-05-29T14:51:00;46.97;39.08;61.44;;
1754;Laerm;58380;48.312;9.246;2023-05-29T14:53:25;45.61;37.24;65.08;;
1754;Laerm;58380;48.312;9.246;2023-05-29T14:55:51;46.85;39.06;67.20;;
1754;Laerm;58380;48.312;9.246;2023-05-29T14:58:16;44.38;37.02;55.59;;
1754;Laerm;58380;48.312;9.246;2023-05-29T15:00:42;46.45;39.24;54.81;;
1754;Laerm;58380;48.312;9.246;2023-05-29T15:03:07;61.88;38.18;85.37;;
1754;Laerm;58380;48.312;9.246;2023-05-29T15:05:32;44.41;37.63;54.68;;
1754;Laerm;58380;48.312;9.246;2023-05-29T15:07:58;46.74;38.68;57.70;;
1754;Laerm;58380;48.312;9.246;2023-05-29T15:10:28;46.22;39.80;56.60;;
1754;Laerm;58380;48.312;9.246;2023-05-29T15:12:54;47.06;37.52;65.53;;
1754;Laerm;58380;48.312;9.246;2023-05-29T15:15:24;45.54;37.25;68.62;;
1754;Laerm;58380;48.312;9.246;2023-05-29T15:17:50;46.30;38.35;55.52;;
1754;Laerm;58380;48.312;9.246;2023-05-29T15:20:20;45.93;40.55;56.42;;
1754;Laerm;58380;48.312;9.246;2023-05-29T15:22:46;46.37;37.83;61.81;;
1754;Laerm;58380;48.312;9.246;2023-05-29T15:25:11;45.96;35.81;58.98;;
1754;Laerm;58380;48.312;9.246;2023-05-29T15:27:37;48.31;40.08;60.99;;
1754;Laerm;58380;48.312;9.246;2023-05-29T15:30:13;46.39;38.39;65.31;;
1754;Laerm;58380;48.312;9.246;2023-05-29T15:32:41;56.50;42.00;76.82;;
1754;Laerm;58380;48.312;9.246;2023-05-29T15:35:09;47.19;34.45;66.03;;
1754;Laerm;58380;48.312;9.246;2023-05-29T15:37:35;47.51;36.13;67.91;;
1754;Laerm;58380;48.312;9.246;2023-05-29T15:40:01;46.94;39.01;69.56;;
1754;Laerm;58380;48.312;9.246;2023-05-29T15:42:27;47.61;37.74;63.93;;
1754;Laerm;58380;48.312;9.246;2023-05-29T15:44:52;47.67;38.56;59.41;;
1754;Laerm;58380;48.312;9.246;2023-05-29T15:47:18;47.18;39.25;65.84;;
1754;Laerm;58380;48.312;9.246;2023-05-29T15:49:43;47.04;38.91;67.63;;
1754;Laerm;58380;48.312;9.246;2023-05-29T15:52:08;51.89;38.78;63.94;;
1754;Laerm;58380;48.312;9.246;2023-05-29T15:54:34;44.88;36.61;59.14;;
1754;Laerm;58380;48.312;9.246;2023-05-29T15:56:59;45.54;39.78;53.08;;
1754;Laerm;58380;48.312;9.246;2023-05-29T15:59:30;46.68;36.28;56.56;;
1754;Laerm;58380;48.312;9.246;2023-05-29T16:01:56;45.89;38.93;61.21;;
1754;Laerm;58380;48.312;9.246;2023-05-29T16:04:22;45.67;37.07;55.46;;
1754;Laerm;58380;48.312;9.246;2023-05-29T16:06:47;46.08;37.31;55.49;;
1754;Laerm;58380;48.312;9.246;2023-05-29T16:09:14;46.22;40.64;55.46;;
1754;Laerm;58380;48.312;9.246;2023-05-29T16:11:39;46.83;37.52;56.69;;
1754;Laerm;58380;48.312;9.246;2023-05-29T16:14:05;45.15;38.25;57.73;;
1754;Laerm;58380;48.312;9.246;2023-05-29T16:16:31;43.41;35.47;54.51;;
1754;Laerm;58380;48.312;9.246;2023-05-29T16:18:59;46.10;35.27;53.58;;
1754;Laerm;58380;48.312;9.246;2023-05-29T16:21:24;44.63;38.20;52.30;;
1754;Laerm;58380;48.312;9.246;2023-05-29T16:23:50;44.10;34.04;56.70;;
1754;Laerm;58380;48.312;9.246;2023-05-29T16:26:22;45.91;38.89;55.73;;
1754;Laerm;58380;48.312;9.246;2023-05-29T16:28:48;47.74;36.22;60.07;;
1754;Laerm;58380;48.312;9.246;2023-05-29T16:31:13;44.39;37.92;62.11;;
1754;Laerm;58380;48.312;9.246;2023-05-29T16:33:39;46.20;36.90;56.65;;
1754;Laerm;58380;48.312;9.246;2023-05-29T16:36:04;44.08;36.56;52.10;;
1754;Laerm;58380;48.312;9.246;2023-05-29T16:38:31;44.76;35.25;56.84;;
1754;Laerm;58380;48.312;9.246;2023-05-29T16:40:56;45.00;37.46;56.02;;
1754;Laerm;58380;48.312;9.246;2023-05-29T16:43:21;43.93;36.27;53.70;;
1754;Laerm;58380;48.312;9.246;2023-05-29T16:45:48;46.58;38.49;61.30;;
1754;Laerm;58380;48.312;9.246;2023-05-29T16:48:13;44.51;34.58;52.82;;
1754;Laerm;58380;48.312;9.246;2023-05-29T16:50:38;44.78;35.55;64.01;;
1754;Laerm;58380;48.312;9.246;2023-05-29T16:53:03;45.39;37.31;56.57;;
1754;Laerm;58380;48.312;9.246;2023-05-29T16:55:29;41.22;33.49;53.82;;
1754;Laerm;58380;48.312;9.246;2023-05-29T16:57:54;45.41;34.49;60.61;;
1754;Laerm;58380;48.312;9.246;2023-05-29T17:00:20;46.07;37.28;58.64;;
1754;Laerm;58380;48.312;9.246;2023-05-29T17:02:45;47.19;37.37;57.99;;
1754;Laerm;58380;48.312;9.246;2023-05-29T17:05:11;47.13;38.29;60.97;;
1754;Laerm;58380;48.312;9.246;2023-05-29T17:07:36;44.47;36.17;57.34;;
1754;Laerm;58380;48.312;9.246;2023-05-29T17:10:02;43.40;35.88;52.87;;
1754;Laerm;58380;48.312;9.246;2023-05-29T17:12:28;44.94;35.82;56.20;;
1754;Laerm;58380;48.312;9.246;2023-05-29T17:14:53;46.26;38.12;55.76;;
1754;Laerm;58380;48.312;9.246;2023-05-29T17:17:19;48.23;40.35;58.65;;
1754;Laerm;58380;48.312;9.246;2023-05-29T17:19:45;49.82;38.05;66.67;;
1754;Laerm;58380;48.312;9.246;2023-05-29T17:22:10;46.11;36.22;65.16;;
1754;Laerm;58380;48.312;9.246;2023-05-29T17:24:35;46.37;35.76;57.27;;
1754;Laerm;58380;48.312;9.246;2023-05-29T17:27:01;47.03;36.97;57.05;;
1754;Laerm;58380;48.312;9.246;2023-05-29T17:29:29;46.14;38.28;53.77;;
1754;Laerm;58380;48.312;9.246;2023-05-29T17:31:54;45.39;34.19;55.67;;
1754;Laerm;58380;48.312;9.246;2023-05-29T17:34:20;42.22;34.32;52.30;;
1754;Laerm;58380;48.312;9.246;2023-05-29T17:36:45;46.78;38.14;57.39;;
1754;Laerm;58380;48.312;9.246;2023-05-29T17:39:10;44.58;33.60;55.02;;
1754;Laerm;58380;48.312;9.246;2023-05-29T17:41:36;44.79;34.45;58.27;;
1754;Laerm;58380;48.312;9.246;2023-05-29T17:44:02;53.27;37.93;68.65;;
1754;Laerm;58380;48.312;9.246;2023-05-29T17:46:28;47.70;37.13;59.66;;
1754;Laerm;58380;48.312;9.246;2023-05-29T17:48:54;45.47;32.95;56.81;;
1754;Laerm;58380;48.312;9.246;2023-05-29T17:51:19;43.39;35.28;52.12;;
1754;Laerm;58380;48.312;9.246;2023-05-29T17:53:48;40.19;33.01;48.45;;
1754;Laerm;58380;48.312;9.246;2023-05-29T17:56:13;45.87;38.23;56.56;;
1754;Laerm;58380;48.312;9.246;2023-05-29T17:58:39;43.60;32.97;54.45;;
1754;Laerm;58380;48.312;9.246;2023-05-29T18:01:04;43.23;35.06;61.24;;
1754;Laerm;58380;48.312;9.246;2023-05-29T18:03:30;44.71;32.81;58.15;;
1754;Laerm;58380;48.312;9.246;2023-05-29T18:05:55;45.15;36.88;63.27;;
1754;Laerm;58380;48.312;9.246;2023-05-29T18:08:21;44.87;37.37;54.46;;
1754;Laerm;58380;48.312;9.246;2023-05-29T18:10:47;46.01;35.33;57.37;;
1754;Laerm;58380;48.312;9.246;2023-05-29T18:13:12;41.98;31.65;54.90;;
1754;Laerm;58380;48.312;9.246;2023-05-29T18:15:37;41.59;33.28;53.84;;
1754;Laerm;58380;48.312;9.246;2023-05-29T18:18:03;43.05;34.97;52.86;;
1754;Laerm;58380;48.312;9.246;2023-05-29T18:20:28;47.72;37.56;57.06;;
1754;Laerm;58380;48.312;9.246;2023-05-29T18:22:55;44.80;35.23;53.45;;
1754;Laerm;58380;48.312;9.246;2023-05-29T18:25:21;45.58;35.17;59.19;;
1754;Laerm;58380;48.312;9.246;2023-05-29T18:27:46;45.95;33.45;58.82;;
1754;Laerm;58380;48.312;9.246;2023-05-29T18:30:12;44.49;35.26;58.38;;
1754;Laerm;58380;48.312;9.246;2023-05-29T18:32:38;44.93;33.91;59.92;;
1754;Laerm;58380;48.312;9.246;2023-05-29T18:35:04;45.59;33.15;53.40;;
1754;Laerm;58380;48.312;9.246;2023-05-29T18:37:30;44.76;36.37;57.75;;
1754;Laerm;58380;48.312;9.246;2023-05-29T18:39:56;43.46;34.60;57.66;;
1754;Laerm;58380;48.312;9.246;2023-05-29T18:42:21;45.71;37.86;53.66;;
1754;Laerm;58380;48.312;9.246;2023-05-29T18:44:47;44.69;36.43;51.44;;
1754;Laerm;58380;48.312;9.246;2023-05-29T18:47:12;42.45;33.63;56.31;;
1754;Laerm;58380;48.312;9.246;2023-05-29T18:49:44;43.67;36.77;52.71;;
1754;Laerm;58380;48.312;9.246;2023-05-29T18:52:09;46.02;37.07;55.01;;
1754;Laerm;58380;48.312;9.246;2023-05-29T18:54:35;47.64;36.42;59.83;;
1754;Laerm;58380;48.312;9.246;2023-05-29T18:57:01;46.43;38.20;53.89;;
1754;Laerm;58380;48.312;9.246;2023-05-29T18:59:27;45.47;33.61;59.43;;
1754;Laerm;58380;48.312;9.246;2023-05-29T19:01:52;46.90;39.81;57.03;;
1754;Laerm;58380;48.312;9.246;2023-05-29T19:04:18;44.16;38.05;54.79;;
1754;Laerm;58380;48.312;9.246;2023-05-29T19:06:43;45.17;37.26;56.55;;
1754;Laerm;58380;48.312;9.246;2023-05-29T19:09:09;48.77;34.60;69.32;;
1754;Laerm;58380;48.312;9.246;2023-05-29T19:11:35;47.12;38.37;62.16;;
1754;Laerm;58380;48.312;9.246;2023-05-29T19:14:00;43.71;32.00;55.62;;
1754;Laerm;58380;48.312;9.246;2023-05-29T19:16:27;45.46;36.18;54.65;;
1754;Laerm;58380;48.312;9.246;2023-05-29T19:18:52;42.54;33.59;54.37;;
1754;Laerm;58380;48.312;9.246;2023-05-29T19:21:20;44.29;37.19;58.96;;
1754;Laerm;58380;48.312;9.246;2023-05-29T19:23:45;45.62;34.75;54.34;;
1754;Laerm;58380;48.312;9.246;2023-05-29T19:26:12;43.42;33.01;51.77;;
1754;Laerm;58380;48.312;9.246;2023-05-29T19:28:37;44.93;37.22;52.31;;
1754;Laerm;58380;48.312;9.246;2023-05-29T19:31:02;42.28;34.14;50.97;;
1754;Laerm;58380;48.312;9.246;2023-05-29T19:33:28;42.03;34.62;54.80;;
1754;Laerm;58380;48.312;9.246;2023-05-29T19:35:53;44.85;33.59;52.49;;
1754;Laerm;58380;48.312;9.246;2023-05-29T19:38:19;42.46;31.63;50.97;;
1754;Laerm;58380;48.312;9.246;2023-05-29T19:40:44;43.45;32.25;51.66;;
1754;Laerm;58380;48.312;9.246;2023-05-29T19:43:12;42.18;34.56;52.29;;
1754;Laerm;58380;48.312;9.246;2023-05-29T19:45:38;43.77;35.08;51.60;;
1754;Laerm;58380;48.312;9.246;2023-05-29T19:48:03;38.72;31.80;50.08;;
1754;Laerm;58380;48.312;9.246;2023-05-29T19:50:29;44.15;31.58;56.35;;
1754;Laerm;58380;48.312;9.246;2023-05-29T19:52:55;40.40;31.57;52.14;;
1754;Laerm;58380;48.312;9.246;2023-05-29T19:55:20;43.67;33.04;53.74;;
1754;Laerm;58380;48.312;9.246;2023-05-29T19:57:46;45.32;31.41;59.89;;
1754;Laerm;58380;48.312;9.246;2023-05-29T20:00:13;41.77;33.41;48.62;;
1754;Laerm;58380;48.312;9.246;2023-05-29T20:02:40;42.94;35.33;53.13;;
1754;Laerm;58380;48.312;9.246;2023-05-29T20:05:06;41.37;31.87;55.39;;
1754;Laerm;58380;48.312;9.246;2023-05-29T20:07:32;40.31;32.76;51.22;;
1754;Laerm;58380;48.312;9.246;2023-05-29T20:09:58;41.27;32.53;52.57;;
1754;Laerm;58380;48.312;9.246;2023-05-29T20:12:24;44.00;36.21;51.55;;
1754;Laerm;58380;48.312;9.246;2023-05-29T20:14:50;43.77;31.03;58.01;;
1754;Laerm;58380;48.312;9.246;2023-05-29T20:17:19;44.31;32.26;57.64;;
1754;Laerm;58380;48.312;9.246;2023-05-29T20:19:51;44.00;31.50;54.90;;
1754;Laerm;58380;48.312;9.246;2023-05-29T20:22:17;43.05;32.47;54.25;;
1754;Laerm;58380;48.312;9.246;2023-05-29T20:24:42;42.24;31.35;52.14;;
1754;Laerm;58380;48.312;9.246;2023-05-29T20:27:07;39.49;31.10;50.34;;
1754;Laerm;58380;48.312;9.246;2023-05-29T20:29:33;42.29;30.58;53.75;;
1754;Laerm;58380;48.312;9.246;2023-05-29T20:32:00;41.16;31.30;54.08;;
1754;Laerm;58380;48.312;9.246;2023-05-29T20:34:26;38.39;32.85;45.82;;
1754;Laerm;58380;48.312;9.246;2023-05-29T20:36:51;39.35;32.17;50.30;;
1754;Laerm;58380;48.312;9.246;2023-05-29T20:39:19;40.87;32.52;48.51;;
1754;Laerm;58380;48.312;9.246;2023-05-29T20:41:47;40.98;31.46;52.68;;
1754;Laerm;58380;48.312;9.246;2023-05-29T20:44:14;44.17;32.49;56.65;;
1754;Laerm;58380;48.312;9.246;2023-05-29T20:46:40;42.64;31.99;55.37;;
1754;Laerm;58380;48.312;9.246;2023-05-29T20:49:06;45.06;34.36;54.97;;
1754;Laerm;58380;48.312;9.246;2023-05-29T20:51:34;38.86;30.05;49.31;;
1754;Laerm;58380;48.312;9.246;2023-05-29T20:53:59;39.44;30.28;51.27;;
1754;Laerm;58380;48.312;9.246;2023-05-29T20:56:26;41.90;30.34;55.07;;
1754;Laerm;58380;48.312;9.246;2023-05-29T20:58:52;42.25;30.60;52.34;;
